createdAt,value
2018-11-22T00:02:16.359Z,29.57
2018-11-22T00:04:44.708Z,29.80
2018-11-22T00:07:13.047Z,27.77
2018-11-22T00:09:41.372Z,28.98
2018-11-22T00:12:09.751Z,28.83
2018-11-22T00:14:38.095Z,30.37
2018-11-22T00:17:06.685Z,27.58
2018-11-22T00:19:35.035Z,29.07
2018-11-22T00:22:03.612Z,28.25
2018-11-22T00:24:32.043Z,27.20
2018-11-22T00:27:00.483Z,27.82
2018-11-22T00:29:29.088Z,28.27
2018-11-22T00:31:57.434Z,29.25
2018-11-22T00:34:25.779Z,28.65
2018-11-22T00:36:54.132Z,30.82
2018-11-22T00:39:22.478Z,29.27
2018-11-22T00:41:50.820Z,29.02
2018-11-22T00:44:19.179Z,29.95
2018-11-22T00:46:47.524Z,29.20
2018-11-22T00:49:15.867Z,28.85
2018-11-22T00:51:44.211Z,30.37
2018-11-22T00:54:12.559Z,28.67
2018-11-22T00:56:40.916Z,30.10
2018-11-22T00:59:09.267Z,29.27
2018-11-22T01:01:38.131Z,28.98
2018-11-22T01:04:06.579Z,31.30
2018-11-22T01:06:34.944Z,29.90
2018-11-22T01:09:05.263Z,28.17
2018-11-22T01:11:33.599Z,29.70
2018-11-22T01:14:02.063Z,30.43
2018-11-22T01:16:30.417Z,28.67
2018-11-22T01:18:58.756Z,29.63
2018-11-22T01:21:27.127Z,29.20
2018-11-22T01:23:55.896Z,28.07
2018-11-22T01:26:24.235Z,31.00
2018-11-22T01:28:52.591Z,30.57
2018-11-22T01:31:20.936Z,29.02
2018-11-22T01:33:49.275Z,29.60
2018-11-22T01:36:17.659Z,31.65
2018-11-22T01:38:46.012Z,29.33
2018-11-22T01:41:14.348Z,29.90
2018-11-22T01:43:42.783Z,30.32
2018-11-22T01:46:11.139Z,31.35
2018-11-22T01:48:39.487Z,30.97
2018-11-22T01:51:07.840Z,30.55
2018-11-22T01:53:36.177Z,29.27
2018-11-22T01:56:04.939Z,29.60
2018-11-22T01:58:33.281Z,29.32
2018-11-22T02:01:01.721Z,31.30
2018-11-22T02:03:30.066Z,31.23
2018-11-22T02:05:58.410Z,30.05
2018-11-22T02:08:26.839Z,28.95
2018-11-22T02:10:55.155Z,29.30
2018-11-22T02:13:23.527Z,28.10
2018-11-22T02:15:51.866Z,29.57
2018-11-22T02:18:20.215Z,29.12
2018-11-22T02:20:48.564Z,29.77
2018-11-22T02:23:17.208Z,28.32
2018-11-22T02:25:45.680Z,28.65
2018-11-22T02:28:14.012Z,27.87
2018-11-22T02:30:42.347Z,28.07
2018-11-22T02:33:10.687Z,28.12
2018-11-22T02:35:39.034Z,29.23
2018-11-22T02:38:07.487Z,28.35
2018-11-22T02:40:35.824Z,29.45
2018-11-22T02:43:06.531Z,27.98
2018-11-22T02:45:35.028Z,28.30
2018-11-22T02:48:03.365Z,29.00
2018-11-22T02:50:31.728Z,27.60
2018-11-22T02:53:00.089Z,27.80
2018-11-22T03:00:36.487Z,26.50
2018-11-22T03:03:05.131Z,28.23
2018-11-22T03:05:33.490Z,26.82
2018-11-22T03:08:01.848Z,27.85
2018-11-22T03:10:30.179Z,27.47
2018-11-22T03:12:58.677Z,27.02
2018-11-22T03:15:27.239Z,26.10
2018-11-22T03:17:55.859Z,26.62
2018-11-22T03:20:24.276Z,27.65
2018-11-22T03:22:52.666Z,26.93
2018-11-22T03:25:21.307Z,26.73
2018-11-22T03:27:50.614Z,26.25
2018-11-22T03:30:20.512Z,26.57
2018-11-22T03:32:49.207Z,28.23
2018-11-22T03:35:19.369Z,26.87
2018-11-22T03:37:47.748Z,27.95
2018-11-22T03:40:17.711Z,26.48
2018-11-22T03:42:46.053Z,27.32
2018-11-22T03:45:15.359Z,26.77
2018-11-22T03:47:44.183Z,27.50
2018-11-22T03:50:14.353Z,28.30
2018-11-22T03:52:43.603Z,27.98
2018-11-22T03:55:16.176Z,26.62
2018-11-22T03:57:45.068Z,26.70
2018-11-22T04:00:16.235Z,26.37
2018-11-22T04:02:45.353Z,27.85
2018-11-22T04:05:18.083Z,26.42
2018-11-22T04:07:46.632Z,27.40
2018-11-22T04:10:19.569Z,26.82
2018-11-22T04:12:47.898Z,27.50
2018-11-22T04:15:16.518Z,27.20
2018-11-22T04:17:44.877Z,27.10
2018-11-22T04:20:17.787Z,27.75
2018-11-22T04:22:46.136Z,28.20
2018-11-22T04:25:15.217Z,26.55
2018-11-22T04:27:43.883Z,26.33
2018-11-22T04:30:19.443Z,28.77
2018-11-22T04:32:48.210Z,27.70
2018-11-22T04:35:17.684Z,28.27
2018-11-22T04:37:46.045Z,27.77
2018-11-22T04:40:18.737Z,27.55
2018-11-22T04:42:47.623Z,29.55
2018-11-22T04:45:16.320Z,27.25
2018-11-22T04:47:45.210Z,28.07
2018-11-22T04:50:15.118Z,29.37
2018-11-22T04:52:43.513Z,28.50
2018-11-22T04:55:12.000Z,29.12
2018-11-22T04:57:40.359Z,29.77
2018-11-22T05:00:14.103Z,28.42
2018-11-22T05:02:42.860Z,29.07
2018-11-22T05:05:16.053Z,29.70
2018-11-22T05:07:44.936Z,30.30
2018-11-22T05:10:15.471Z,31.48
2018-11-22T05:12:44.360Z,30.52
2018-11-22T05:15:17.283Z,29.90
2018-11-22T05:17:46.044Z,30.95
2018-11-22T05:20:15.737Z,29.27
2018-11-22T05:22:44.092Z,29.95
2018-11-22T05:25:12.911Z,30.85
2018-11-22T05:27:41.265Z,31.07
2018-11-22T05:30:17.531Z,31.80
2018-11-22T05:32:46.027Z,31.42
2018-11-22T05:35:15.027Z,30.68
2018-11-22T05:37:43.379Z,32.58
2018-11-22T05:40:16.493Z,31.17
2018-11-22T05:42:45.055Z,32.53
2018-11-22T05:45:15.444Z,32.53
2018-11-22T05:47:43.875Z,31.33
2018-11-22T05:50:14.515Z,32.73
2018-11-22T05:52:43.814Z,32.33
2018-11-22T05:55:12.711Z,32.08
2018-11-22T05:57:41.111Z,33.58
2018-11-22T06:00:20.941Z,32.58
2018-11-22T06:02:49.606Z,31.70
2018-11-22T06:05:19.330Z,32.88
2018-11-22T06:07:47.831Z,32.90
2018-11-22T06:10:18.352Z,32.90
2018-11-22T06:12:47.228Z,33.35
2018-11-22T06:15:15.914Z,32.08
2018-11-22T06:17:45.219Z,34.38
2018-11-22T06:20:20.871Z,33.78
2018-11-22T06:22:49.754Z,33.63
2018-11-22T06:25:18.640Z,34.03
2018-11-22T06:27:47.549Z,33.95
2018-11-22T06:30:22.628Z,31.48
2018-11-22T06:32:52.327Z,31.35
2018-11-22T06:35:21.171Z,33.40
2018-11-22T06:37:49.514Z,32.63
2018-11-22T06:40:18.344Z,34.23
2018-11-22T06:42:48.055Z,33.23
2018-11-22T06:45:20.839Z,33.80
2018-11-22T06:47:49.216Z,34.25
2018-11-22T06:50:18.670Z,33.73
2018-11-22T06:52:47.115Z,34.73
2018-11-22T06:55:17.019Z,35.52
2018-11-22T06:57:45.483Z,34.30
2018-11-22T07:00:16.227Z,33.58
2018-11-22T07:02:45.123Z,34.18
2018-11-22T07:05:14.207Z,36.13
2018-11-22T07:07:42.570Z,34.40
2018-11-22T07:10:12.859Z,34.25
2018-11-22T07:12:41.321Z,34.15
2018-11-22T07:15:10.594Z,35.92
2018-11-22T07:17:38.947Z,34.13
2018-11-22T07:20:09.645Z,34.95
2018-11-22T07:22:38.097Z,36.00
2018-11-22T07:25:10.231Z,35.50
2018-11-22T07:27:38.604Z,35.00
2018-11-22T07:30:13.422Z,35.45
2018-11-22T07:32:42.051Z,35.45
2018-11-22T07:35:11.951Z,35.15
2018-11-22T07:37:41.058Z,34.00
2018-11-22T07:40:14.923Z,35.15
2018-11-22T07:42:43.363Z,33.00
2018-11-22T07:45:23.296Z,33.67
2018-11-22T07:47:52.395Z,34.87
2018-11-22T07:50:21.692Z,34.33
2018-11-22T07:52:52.352Z,34.70
2018-11-22T07:55:19.063Z,33.50
2018-11-22T07:57:47.446Z,33.60
2018-11-22T08:00:18.684Z,35.43
2018-11-22T08:02:47.991Z,36.10
2018-11-22T08:05:17.702Z,35.33
2018-11-22T08:07:46.730Z,35.35
2018-11-22T08:10:16.156Z,35.92
2018-11-22T08:12:45.465Z,35.35
2018-11-22T08:15:15.344Z,37.53
2018-11-22T08:17:43.997Z,36.23
2018-11-22T08:20:13.095Z,33.75
2018-11-22T08:22:41.776Z,36.23
2018-11-22T08:25:15.176Z,34.55
2018-11-22T08:27:44.072Z,34.43
2018-11-22T08:30:15.454Z,33.50
2018-11-22T08:32:43.839Z,35.10
2018-11-22T08:35:12.792Z,35.90
2018-11-22T08:37:41.287Z,35.70
2018-11-22T08:40:15.078Z,34.73
2018-11-22T08:42:43.978Z,35.13
2018-11-22T08:45:13.675Z,34.93
2018-11-22T08:47:42.096Z,35.73
2018-11-22T08:50:12.727Z,36.10
2018-11-22T08:52:41.994Z,35.53
2018-11-22T08:55:11.791Z,34.30
2018-11-22T08:57:40.127Z,36.80
2018-11-22T09:00:17.327Z,35.83
2018-11-22T09:02:46.166Z,37.33
2018-11-22T09:05:16.063Z,36.70
2018-11-22T09:07:44.808Z,33.70
2018-11-22T09:10:15.284Z,35.67
2018-11-22T09:12:44.134Z,35.93
2018-11-22T09:15:14.088Z,35.97
2018-11-22T09:17:43.190Z,34.90
2018-11-22T09:20:20.070Z,35.50
2018-11-22T09:22:48.513Z,35.53
2018-11-22T09:25:17.434Z,35.47
2018-11-22T09:27:45.895Z,37.10
2018-11-22T09:30:22.790Z,34.07
2018-11-22T09:32:51.902Z,35.57
2018-11-22T09:35:21.298Z,35.27
2018-11-22T09:37:49.681Z,34.30
2018-11-22T09:40:25.734Z,34.37
2018-11-22T09:42:54.078Z,34.37
2018-11-22T09:45:34.793Z,32.37
2018-11-22T09:48:03.934Z,33.83
2018-11-22T09:50:32.282Z,33.67
2018-11-22T09:53:04.730Z,32.93
2018-11-22T09:55:33.308Z,33.00
2018-11-22T09:58:01.885Z,32.80
2018-11-22T10:00:30.626Z,32.43
2018-11-22T10:02:58.997Z,33.50
2018-11-22T10:05:29.026Z,33.83
2018-11-22T10:07:57.878Z,33.00
2018-11-22T10:10:27.986Z,32.37
2018-11-22T10:12:56.316Z,32.87
2018-11-22T10:15:29.182Z,32.30
2018-11-22T10:17:57.540Z,33.77
2018-11-22T10:20:26.849Z,34.40
2018-11-22T10:22:56.131Z,32.77
2018-11-22T10:25:25.010Z,32.53
2018-11-22T10:27:54.777Z,32.83
2018-11-22T10:30:24.286Z,32.53
2018-11-22T10:32:57.233Z,31.37
2018-11-22T10:35:27.224Z,30.73
2018-11-22T10:37:56.167Z,30.20
2018-11-22T10:40:25.393Z,31.03
2018-11-22T10:42:54.966Z,30.20
2018-11-22T10:45:27.694Z,30.40
2018-11-22T10:47:57.322Z,30.97
2018-11-22T10:50:27.239Z,29.60
2018-11-22T10:52:55.597Z,26.80
2018-11-22T10:55:25.214Z,28.40
2018-11-22T10:57:54.374Z,26.70
2018-11-22T11:00:51.998Z,24.80
2018-11-22T11:03:42.142Z,25.60
2018-11-22T11:06:28.527Z,24.97
2018-11-22T11:08:56.873Z,24.77
2018-11-22T11:11:25.204Z,23.83
2018-11-22T11:13:54.030Z,24.83
2018-11-22T11:16:22.482Z,26.57
2018-11-22T11:18:50.830Z,26.13
2018-11-22T11:21:19.259Z,25.70
2018-11-22T11:23:47.593Z,25.00
2018-11-22T11:26:15.936Z,25.23
2018-11-22T11:28:44.310Z,24.60
2018-11-22T11:31:12.652Z,23.90
2018-11-22T11:33:41.008Z,25.63
2018-11-22T11:36:09.343Z,24.40
2018-11-22T11:38:37.831Z,25.70
2018-11-22T11:41:06.251Z,25.13
2018-11-22T11:43:34.595Z,25.07
2018-11-22T11:46:03.000Z,24.67
2018-11-22T11:48:31.338Z,25.67
2018-11-22T11:50:59.692Z,26.03
2018-11-22T11:53:41.040Z,25.03
2018-11-22T11:55:57.389Z,24.67
2018-11-22T11:58:26.083Z,26.67
2018-11-22T12:00:54.430Z,25.43
2018-11-22T12:03:22.880Z,24.70
2018-11-22T12:05:51.235Z,24.50
2018-11-22T12:08:19.578Z,25.70
2018-11-22T12:10:47.917Z,26.37
2018-11-22T12:13:16.254Z,25.60
2018-11-22T12:18:12.501Z,26.43
2018-11-22T12:20:40.838Z,27.03
2018-11-22T12:23:09.168Z,25.13
2018-11-22T12:25:37.506Z,26.00
2018-11-22T12:28:05.848Z,24.77
2018-11-22T12:30:34.687Z,26.37
2018-11-22T12:33:34.450Z,26.23
2018-11-22T12:36:20.463Z,27.70
2018-11-22T12:38:48.812Z,26.43
2018-11-22T12:41:17.202Z,27.07
2018-11-22T12:43:45.547Z,27.83
2018-11-22T12:46:13.891Z,28.57
2018-11-22T12:48:42.807Z,28.00
2018-11-22T12:51:11.140Z,28.00
2018-11-22T12:53:39.475Z,26.90
2018-11-22T12:56:08.261Z,28.03
2018-11-22T12:58:36.603Z,27.80
2018-11-22T13:01:05.400Z,27.10
2018-11-22T13:03:33.756Z,27.83
2018-11-22T13:06:02.222Z,27.73
2018-11-22T13:08:30.571Z,29.20
2018-11-22T13:10:58.925Z,27.40
2018-11-22T13:13:27.359Z,27.67
2018-11-22T13:15:55.791Z,27.90
2018-11-22T13:18:24.138Z,28.87
2018-11-22T13:20:52.521Z,29.80
2018-11-22T13:23:20.858Z,29.57
2018-11-22T13:25:49.206Z,28.93
2018-11-22T13:28:17.558Z,29.73
2018-11-22T13:30:45.954Z,29.50
2018-11-22T13:33:14.311Z,28.57
2018-11-22T13:35:42.646Z,29.77
2018-11-22T13:38:11.018Z,30.60
2018-11-22T13:40:39.343Z,30.40
2018-11-22T13:43:07.705Z,30.47
2018-11-22T13:45:36.060Z,31.20
2018-11-22T13:48:04.635Z,30.87
2018-11-22T13:50:33.806Z,30.80
2018-11-22T13:53:06.385Z,31.17
2018-11-22T13:55:34.965Z,31.00
2018-11-22T13:58:03.421Z,31.43
2018-11-22T14:00:33.055Z,31.27
2018-11-22T14:03:05.733Z,30.83
2018-11-22T14:05:34.158Z,29.37
2018-11-22T14:08:02.498Z,30.03
2018-11-22T14:10:30.868Z,31.17
2018-11-22T14:12:59.255Z,30.30
2018-11-22T14:15:29.071Z,31.70
2018-11-22T14:17:58.982Z,30.40
2018-11-22T14:20:28.926Z,30.67
2018-11-22T14:22:57.278Z,30.50
2018-11-22T14:25:25.607Z,31.30
2018-11-22T14:27:53.963Z,30.50
2018-11-22T14:30:26.441Z,29.53
2018-11-22T14:32:54.330Z,30.70
2018-11-22T14:35:23.678Z,29.90
2018-11-22T14:37:52.264Z,30.47
2018-11-22T14:40:24.931Z,30.80
2018-11-22T14:42:54.030Z,30.70
2018-11-22T14:45:23.331Z,31.10
2018-11-22T14:47:53.043Z,31.57
2018-11-22T14:50:44.910Z,31.20
2018-11-22T14:53:17.895Z,30.60
2018-11-22T14:55:46.344Z,31.07
2018-11-22T14:58:14.727Z,31.87
2018-11-22T15:00:43.203Z,31.63
2018-11-22T15:03:11.534Z,31.77
2018-11-22T15:05:39.877Z,29.80
2018-11-22T15:08:08.301Z,29.47
2018-11-22T15:10:36.655Z,30.23
2018-11-22T15:13:05.380Z,30.47
2018-11-22T15:15:33.722Z,32.87
2018-11-22T15:18:02.116Z,33.03
2018-11-22T15:20:30.489Z,30.50
2018-11-22T15:22:58.821Z,31.83
2018-11-22T15:25:28.321Z,32.40
2018-11-22T15:27:56.790Z,31.73
2018-11-22T15:30:26.506Z,30.60
2018-11-22T15:32:55.306Z,31.60
2018-11-22T15:35:24.915Z,31.17
2018-11-22T15:37:53.804Z,32.37
2018-11-22T15:40:23.318Z,32.23
2018-11-22T15:42:53.218Z,32.17
2018-11-22T15:45:22.930Z,31.43
2018-11-22T15:47:51.382Z,30.87
2018-11-22T15:50:21.123Z,31.83
2018-11-22T15:52:49.564Z,31.80
2018-11-22T15:55:21.043Z,31.93
2018-11-22T15:57:48.749Z,31.43
2018-11-22T16:00:26.107Z,31.80
2018-11-22T16:02:55.000Z,32.57
2018-11-22T16:05:24.327Z,32.63
2018-11-22T16:07:52.683Z,32.67
2018-11-22T16:10:26.826Z,31.20
2018-11-22T16:12:56.130Z,31.25
2018-11-22T16:15:29.551Z,32.45
2018-11-22T16:17:57.898Z,32.53
2018-11-22T16:20:26.279Z,32.87
2018-11-22T16:22:54.635Z,33.15
2018-11-22T16:25:23.075Z,32.05
2018-11-22T16:27:51.423Z,31.70
2018-11-22T16:30:24.275Z,30.35
2018-11-22T16:32:52.848Z,33.43
2018-11-22T16:35:22.049Z,32.88
2018-11-22T16:37:50.419Z,32.53
2018-11-22T16:40:26.174Z,31.02
2018-11-22T16:42:55.687Z,32.98
2018-11-22T16:45:49.264Z,29.65
2018-11-22T16:48:17.622Z,31.05
2018-11-22T16:50:45.984Z,31.90
2018-11-22T16:53:14.446Z,31.42
2018-11-22T16:55:42.794Z,30.50
2018-11-22T16:58:11.150Z,31.20
2018-11-22T17:00:40.251Z,30.30
2018-11-22T17:03:13.221Z,30.90
2018-11-22T17:05:42.325Z,32.08
2018-11-22T17:08:10.737Z,32.30
2018-11-22T17:10:39.899Z,31.85
2018-11-22T17:13:08.366Z,33.43
2018-11-22T17:15:38.302Z,33.67
2018-11-22T17:18:08.194Z,32.42
2018-11-22T17:20:36.727Z,32.30
2018-11-22T17:23:06.226Z,31.82
2018-11-22T17:25:35.486Z,31.62
2018-11-22T17:28:05.207Z,29.72
2018-11-22T17:30:38.218Z,30.20
2018-11-22T17:33:06.692Z,32.35
2018-11-22T17:35:35.583Z,29.70
2018-11-22T17:38:05.482Z,31.25
2018-11-22T17:40:35.448Z,30.97
2018-11-22T17:43:03.986Z,31.15
2018-11-22T17:45:37.072Z,31.25
2018-11-22T17:48:06.008Z,30.57
2018-11-22T17:50:36.155Z,31.65
2018-11-22T17:53:05.030Z,31.55
2018-11-22T17:55:34.067Z,32.40
2018-11-22T17:58:02.663Z,30.52
2018-11-22T18:00:38.195Z,31.62
2018-11-22T18:03:07.290Z,30.80
2018-11-22T18:05:35.980Z,31.75
2018-11-22T18:08:05.194Z,30.40
2018-11-22T18:10:35.193Z,29.95
2018-11-22T18:13:03.562Z,28.83
2018-11-22T18:15:51.070Z,30.60
2018-11-22T18:18:19.506Z,29.98
2018-11-22T18:20:47.858Z,30.27
2018-11-22T18:23:16.194Z,29.95
2018-11-22T18:25:48.874Z,29.25
2018-11-22T18:28:13.799Z,30.20
2018-11-22T18:30:42.150Z,30.75
2018-11-22T18:33:10.494Z,28.47
2018-11-22T18:35:38.842Z,31.77
2018-11-22T18:38:07.180Z,29.72
2018-11-22T18:40:37.245Z,29.37
2018-11-22T18:43:05.710Z,29.98
2018-11-22T18:45:35.685Z,30.72
2018-11-22T18:48:05.272Z,29.12
2018-11-22T18:50:34.461Z,29.23
2018-11-22T18:53:02.818Z,30.55
2018-11-22T18:55:31.268Z,32.13
2018-11-22T18:57:59.650Z,31.60
2018-11-22T19:00:29.464Z,29.80
2018-11-22T19:02:59.418Z,29.65
2018-11-22T19:05:27.981Z,29.15
2018-11-22T19:07:57.095Z,31.05
2018-11-22T19:10:29.934Z,31.10
2018-11-22T19:12:59.785Z,29.42
2018-11-22T19:15:29.515Z,30.82
2018-11-22T19:17:57.912Z,33.00
2018-11-22T19:20:31.582Z,31.75
2018-11-22T19:23:00.890Z,31.75
2018-11-22T19:25:29.237Z,31.42
2018-11-22T19:27:58.513Z,32.45
2018-11-22T19:30:37.126Z,30.12
2018-11-22T19:33:01.366Z,30.85
2018-11-22T19:35:31.063Z,30.65
2018-11-22T19:37:59.417Z,31.80
2018-11-22T19:40:35.191Z,32.00
2018-11-22T19:43:05.122Z,33.20
2018-11-22T19:45:35.248Z,32.38
2018-11-22T19:48:03.580Z,32.55
2018-11-22T19:50:32.241Z,31.42
2018-11-22T19:53:01.916Z,32.08
2018-11-22T19:55:31.613Z,32.78
2018-11-22T19:58:04.000Z,33.53
2018-11-22T20:00:32.691Z,32.17
2018-11-22T20:03:02.461Z,33.50
2018-11-22T20:05:32.102Z,31.75
2018-11-22T20:08:02.019Z,32.20
2018-11-22T20:10:31.735Z,30.05
2018-11-22T20:13:00.155Z,30.02
2018-11-22T20:15:28.693Z,29.80
2018-11-22T20:17:57.783Z,31.75
2018-11-22T20:20:26.470Z,30.60
2018-11-22T20:22:55.159Z,30.97
2018-11-22T20:25:23.663Z,31.02
2018-11-22T20:27:53.146Z,31.33
2018-11-22T20:30:23.506Z,35.65
2018-11-22T20:32:51.847Z,32.55
2018-11-22T20:35:21.057Z,36.20
2018-11-22T20:37:50.142Z,35.88
2018-11-22T20:40:19.848Z,35.45
2018-11-22T20:42:48.466Z,36.90
2018-11-22T20:45:18.286Z,33.15
2018-11-22T20:47:47.766Z,33.78
2018-11-22T20:50:17.662Z,32.30
2018-11-22T20:52:46.154Z,31.40
2018-11-22T20:55:17.073Z,31.25
2018-11-22T20:57:46.656Z,31.33
2018-11-22T21:00:16.918Z,31.00
2018-11-22T21:02:45.820Z,31.87
2018-11-22T21:05:14.898Z,31.35
2018-11-22T21:07:43.811Z,30.97
2018-11-22T21:10:26.210Z,29.80
2018-11-22T21:12:54.647Z,30.82
2018-11-22T21:15:27.255Z,31.68
2018-11-22T21:17:57.386Z,31.85
2018-11-22T21:20:27.501Z,31.52
2018-11-22T21:22:55.830Z,31.40
2018-11-22T21:25:24.223Z,32.03
2018-11-22T21:27:52.691Z,30.08
2018-11-22T21:30:29.838Z,32.28
2018-11-22T21:32:58.921Z,33.23
2018-11-22T21:35:27.375Z,31.73
2018-11-22T21:37:56.691Z,33.18
2018-11-22T21:40:25.798Z,30.75
2018-11-22T21:42:54.123Z,30.88
2018-11-22T21:45:23.783Z,29.42
2018-11-22T21:47:52.162Z,33.18
2018-11-22T21:50:21.969Z,31.42
2018-11-22T21:52:50.455Z,31.80
2018-11-22T21:55:20.419Z,31.60
2018-11-22T21:57:49.203Z,31.75
2018-11-22T22:00:29.856Z,31.27
2018-11-22T22:03:02.814Z,31.97
2018-11-22T22:05:31.147Z,31.42
2018-11-22T22:07:59.634Z,31.42
2018-11-22T22:10:27.962Z,30.75
2018-11-22T22:12:56.290Z,33.38
2018-11-22T22:15:26.237Z,34.55
2018-11-22T22:17:54.665Z,34.15
2018-11-22T22:20:33.234Z,31.75
2018-11-22T22:23:01.686Z,33.73
2018-11-22T22:25:30.105Z,32.10
2018-11-22T22:27:58.893Z,32.58
2018-11-22T22:30:28.600Z,32.48
2018-11-22T22:32:58.507Z,31.48
2018-11-22T22:35:26.859Z,32.67
2018-11-22T22:37:55.194Z,31.55
2018-11-22T22:40:24.774Z,32.63
2018-11-22T22:42:54.485Z,29.40
2018-11-22T22:45:23.993Z,32.55
2018-11-22T22:47:52.675Z,30.70
2018-11-22T22:50:25.254Z,31.60
2018-11-22T22:52:54.962Z,30.85
2018-11-22T22:57:50.976Z,30.35
2018-11-22T23:00:38.610Z,30.20
2018-11-22T23:03:07.735Z,28.23
2018-11-22T23:05:36.819Z,31.02
2018-11-22T23:08:05.175Z,28.77
2018-11-22T23:10:33.627Z,30.60
2018-11-22T23:13:02.144Z,30.30
2018-11-22T23:15:31.362Z,29.35
2018-11-22T23:17:59.711Z,31.57
2018-11-22T23:20:29.547Z,30.97
2018-11-22T23:22:57.878Z,31.25
2018-11-22T23:25:27.131Z,29.98
2018-11-22T23:27:55.485Z,29.95
2018-11-22T23:30:25.667Z,31.33
2018-11-22T23:32:56.437Z,31.23
2018-11-22T23:35:24.897Z,32.17
2018-11-22T23:37:53.487Z,30.10
2018-11-22T23:40:23.141Z,29.27
2018-11-22T23:42:51.619Z,30.00
2018-11-22T23:45:21.132Z,29.85
2018-11-22T23:47:50.014Z,31.00
2018-11-22T23:50:22.813Z,31.25
2018-11-22T23:52:52.313Z,32.00
2018-11-22T23:55:20.755Z,31.27
2018-11-22T23:57:49.098Z,31.50
